Time;durP1;ratioP1;P1;durP2;ratioP2;P2;SDS_P1;SDS_P2;PMS_P1;PMS_P2;Temp;Humidity;BMP_temperature;BMP_pressure;BME280_temperature;BME280_humidity;BME280_pressure;Samples;Min_cycle;Max_cycle;Signal;HPM_P1;HPM_P2
2022/03/19 00:02:18;;;;;;;8.43;2.53;;;16.30;60.30;;;;;;3985907;29;20114;-61
2022/03/19 00:04:39;;;;;;;7.25;2.30;;;16.30;60.60;;;;;;3985347;29;20119;-61
2022/03/19 00:07:02;;;;;;;7.22;2.67;;;16.30;60.90;;;;;;3985525;29;20058;-60
2022/03/19 00:09:24;;;;;;;7.10;2.58;;;16.30;60.90;;;;;;3985521;29;20060;-61
2022/03/19 00:11:48;;;;;;;12.07;2.88;;;16.30;61.00;;;;;;3985742;29;20062;-61
2022/03/19 00:14:12;;;;;;;8.25;3.15;;;16.30;60.60;;;;;;3984346;29;20424;-62
2022/03/19 00:16:34;;;;;;;11.30;3.03;;;16.30;60.60;;;;;;3985238;29;20050;-61
2022/03/19 00:18:56;;;;;;;9.73;3.13;;;16.30;60.60;;;;;;3985293;29;20070;-61
2022/03/19 00:21:19;;;;;;;11.45;3.55;;;16.20;60.30;;;;;;3984896;29;20071;-62
2022/03/19 00:23:41;;;;;;;8.98;2.90;;;16.20;60.20;;;;;;3986380;29;20058;-61
2022/03/19 00:26:03;;;;;;;11.82;3.25;;;16.20;59.60;;;;;;3987875;29;20145;-61
2022/03/19 00:28:26;;;;;;;13.50;3.30;;;16.20;58.10;;;;;;3987715;29;20496;-61
2022/03/19 00:30:51;;;;;;;8.77;2.92;;;16.20;58.20;;;;;;3974460;29;20134;-61
2022/03/19 00:33:14;;;;;;;7.85;2.20;;;16.20;58.70;;;;;;3987899;29;20500;-61
2022/03/19 00:35:37;;;;;;;11.00;2.83;;;16.20;59.60;;;;;;3987793;29;20417;-61
2022/03/19 00:38:01;;;;;;;11.13;3.13;;;16.10;59.90;;;;;;3986948;29;20409;-61
2022/03/19 00:40:24;;;;;;;10.57;3.30;;;16.10;59.30;;;;;;3990573;29;20051;-61
2022/03/19 00:42:47;;;;;;;8.38;2.42;;;16.10;59.00;;;;;;4000822;29;20041;-61
2022/03/19 00:45:11;;;;;;;11.63;3.00;;;16.10;59.50;;;;;;3987784;29;20065;-61
2022/03/19 00:47:34;;;;;;;9.60;2.58;;;16.10;59.90;;;;;;3987801;29;20100;-61
2022/03/19 00:49:57;;;;;;;9.45;2.25;;;16.00;60.10;;;;;;3987453;29;20100;-61
2022/03/19 00:52:19;;;;;;;11.07;2.40;;;16.00;57.60;;;;;;3972971;29;20097;-61
2022/03/19 00:54:41;;;;;;;8.82;3.05;;;16.00;56.40;;;;;;3972765;29;20150;-66
2022/03/19 00:57:04;;;;;;;10.35;3.05;;;16.00;56.30;;;;;;3972744;29;20047;-66
2022/03/19 00:59:26;;;;;;;13.77;3.10;;;15.90;56.90;;;;;;3972477;29;20047;-66
2022/03/19 01:01:50;;;;;;;9.55;3.13;;;15.90;58.10;;;;;;3995933;29;20054;-66
2022/03/19 01:04:12;;;;;;;11.55;2.80;;;15.90;58.50;;;;;;3985842;29;20421;-66
2022/03/19 01:06:35;;;;;;;9.93;2.88;;;15.90;58.10;;;;;;3987525;29;20546;-66
2022/03/19 01:08:57;;;;;;;11.13;3.33;;;15.90;58.10;;;;;;3987576;29;20110;-67
2022/03/19 01:11:23;;;;;;;10.93;2.92;;;15.90;56.80;;;;;;3982656;29;20069;-61
2022/03/19 01:13:44;;;;;;;12.20;2.55;;;15.80;57.20;;;;;;4002141;29;20085;-61
2022/03/19 01:16:07;;;;;;;10.48;3.25;;;15.80;57.10;;;;;;3988573;29;20062;-61
2022/03/19 01:18:32;;;;;;;11.25;3.30;;;15.80;57.00;;;;;;4002646;29;20503;-61
2022/03/19 01:20:53;;;;;;;12.38;3.50;;;15.70;58.20;;;;;;3980574;29;20050;-61
2022/03/19 01:23:16;;;;;;;11.18;3.10;;;15.70;58.70;;;;;;3986820;29;20497;-61
2022/03/19 01:25:38;;;;;;;7.80;2.42;;;15.70;58.50;;;;;;3987283;29;20133;-61
2022/03/19 01:28:00;;;;;;;10.88;2.83;;;15.70;60.60;;;;;;3986404;29;20389;-61
2022/03/19 01:30:24;;;;;;;13.30;4.13;;;15.70;61.50;;;;;;3973503;29;20135;-62
2022/03/19 01:32:46;;;;;;;12.30;2.60;;;15.80;60.70;;;;;;3984519;29;20057;-62
2022/03/19 01:35:11;;;;;;;9.02;2.47;;;15.80;61.40;;;;;;3986328;29;20046;-61
2022/03/19 01:37:34;;;;;;;10.15;3.38;;;15.90;61.80;;;;;;3986471;29;20058;-61
2022/03/19 01:39:56;;;;;;;4.60;2.42;;;15.90;61.60;;;;;;3973275;29;20116;-61
2022/03/19 01:42:24;;;;;;;7.65;2.42;;;16.00;61.80;;;;;;3990644;29;20102;-61
2022/03/19 01:44:46;;;;;;;8.27;2.90;;;16.00;61.10;;;;;;4002237;29;20066;-61
2022/03/19 01:47:10;;;;;;;7.72;2.65;;;16.00;61.00;;;;;;4001883;29;20053;-62
2022/03/19 01:49:32;;;;;;;9.32;2.70;;;16.00;59.80;;;;;;4002122;29;20049;-61
2022/03/19 01:51:56;;;;;;;12.48;3.20;;;16.00;59.90;;;;;;3986866;29;20440;-61
2022/03/19 01:54:23;;;;;;;11.00;2.95;;;15.90;58.80;;;;;;3986415;29;20103;-61
2022/03/19 01:56:46;;;;;;;9.48;2.90;;;15.90;58.10;;;;;;3986012;29;20114;-62
2022/03/19 01:59:08;;;;;;;10.38;2.75;;;15.90;55.90;;;;;;3973021;29;20086;-61
2022/03/19 02:01:30;;;;;;;11.15;2.42;;;15.80;56.80;;;;;;3986504;29;20054;-63
2022/03/19 02:03:53;;;;;;;11.60;2.90;;;15.80;57.10;;;;;;3994428;29;20477;-62
2022/03/19 02:06:15;;;;;;;7.82;3.20;;;15.70;56.40;;;;;;3986793;29;20062;-62
2022/03/19 02:08:42;;;;;;;8.90;2.95;;;15.70;56.60;;;;;;3986760;29;20046;-62
2022/03/19 02:11:06;;;;;;;12.57;3.13;;;15.60;56.10;;;;;;3985975;29;20103;-62
2022/03/19 02:13:28;;;;;;;12.00;3.17;;;15.50;56.20;;;;;;3985939;29;20408;-61
2022/03/19 02:15:50;;;;;;;9.20;2.95;;;15.60;56.40;;;;;;3984836;29;20054;-62
2022/03/19 02:18:13;;;;;;;10.82;3.15;;;15.50;56.60;;;;;;3986611;29;20061;-62
2022/03/19 02:20:35;;;;;;;9.13;3.20;;;15.40;57.50;;;;;;3986514;29;20417;-61
2022/03/19 02:25:38;;;;;;;11.13;3.47;;;15.40;58.90;;;;;;4000736;29;20519;-61
2022/03/19 02:28:00;;;;;;;11.82;3.05;;;15.40;59.20;;;;;;3998875;29;20081;-61
2022/03/19 02:30:22;;;;;;;13.70;3.75;;;15.50;59.50;;;;;;3957485;29;20872;-61
2022/03/19 02:32:49;;;;;;;9.20;3.25;;;15.60;59.70;;;;;;3974494;29;20505;-61
2022/03/19 02:35:12;;;;;;;7.75;2.75;;;15.70;61.10;;;;;;4001066;29;20118;-61
2022/03/19 02:37:39;;;;;;;17.15;3.60;;;15.90;60.70;;;;;;3987813;29;20054;-61
2022/03/19 02:40:03;;;;;;;10.02;3.25;;;15.90;61.00;;;;;;3986614;29;20082;-60
2022/03/19 02:42:26;;;;;;;11.40;2.53;;;16.00;61.50;;;;;;3985908;29;20158;-61
2022/03/19 02:44:49;;;;;;;11.80;3.63;;;16.10;61.20;;;;;;3986190;29;20055;-61
2022/03/19 02:47:12;;;;;;;7.20;3.25;;;16.10;61.20;;;;;;3984924;29;20138;-61
2022/03/19 02:49:34;;;;;;;5.70;2.58;;;16.20;61.20;;;;;;3986128;29;20062;-61
2022/03/19 02:51:56;;;;;;;8.98;3.38;;;16.10;61.20;;;;;;3972475;29;20054;-61
2022/03/19 02:54:20;;;;;;;9.23;3.05;;;16.10;61.20;;;;;;3986135;29;20103;-61
2022/03/19 02:56:45;;;;;;;7.82;3.28;;;16.10;61.50;;;;;;3986081;29;20061;-61
2022/03/19 02:59:08;;;;;;;8.20;3.35;;;16.10;61.40;;;;;;3986077;29;20103;-60
2022/03/19 03:01:30;;;;;;;10.35;3.28;;;16.10;61.30;;;;;;3986350;29;20054;-61
2022/03/19 03:03:53;;;;;;;12.82;3.65;;;16.10;60.20;;;;;;3986107;29;20419;-60
2022/03/19 03:06:15;;;;;;;12.65;2.92;;;16.10;61.20;;;;;;3985839;29;20054;-61
2022/03/19 03:08:37;;;;;;;13.43;3.22;;;16.10;61.40;;;;;;3959825;29;20457;-60
2022/03/19 03:10:59;;;;;;;13.43;3.75;;;16.20;61.20;;;;;;3986009;29;20046;-61
2022/03/19 03:13:23;;;;;;;11.70;3.28;;;16.10;60.30;;;;;;3985875;29;20442;-61
2022/03/19 03:15:45;;;;;;;8.80;3.38;;;16.10;59.30;;;;;;3985833;29;20050;-61
2022/03/19 03:18:07;;;;;;;14.57;4.30;;;16.10;57.90;;;;;;3985809;29;20436;-61
2022/03/19 03:20:29;;;;;;;14.23;3.75;;;16.10;57.30;;;;;;3986391;29;20129;-61
2022/03/19 03:22:51;;;;;;;11.07;3.72;;;16.00;58.40;;;;;;4001007;29;20062;-61
2022/03/19 03:25:13;;;;;;;13.95;3.63;;;15.90;57.00;;;;;;4000899;29;20134;-61
2022/03/19 03:27:35;;;;;;;10.55;3.42;;;15.90;57.30;;;;;;3985907;29;20058;-61
2022/03/19 03:29:59;;;;;;;16.13;4.30;;;15.80;57.80;;;;;;3985672;29;20111;-61
2022/03/19 03:32:21;;;;;;;11.05;3.53;;;15.80;60.10;;;;;;3970793;29;20111;-61
2022/03/19 03:34:43;;;;;;;13.80;4.20;;;15.70;60.90;;;;;;3970696;29;20046;-61
2022/03/19 03:37:06;;;;;;;15.00;3.83;;;15.70;60.40;;;;;;3970819;29;20057;-61
2022/03/19 03:39:28;;;;;;;11.40;3.50;;;15.80;61.10;;;;;;3970699;29;20061;-61
2022/03/19 03:41:50;;;;;;;10.80;3.67;;;15.80;59.90;;;;;;3996047;29;20052;-61
2022/03/19 03:44:12;;;;;;;11.18;4.22;;;15.90;60.10;;;;;;3997520;29;20062;-61
2022/03/19 03:46:35;;;;;;;12.05;4.05;;;15.90;60.00;;;;;;3970217;29;20111;-61
2022/03/19 03:48:58;;;;;;;11.45;3.58;;;15.90;60.00;;;;;;3985434;29;20916;-61
2022/03/19 03:51:20;;;;;;;12.27;3.63;;;15.90;60.00;;;;;;3985121;29;20046;-61
2022/03/19 03:53:45;;;;;;;10.80;3.50;;;15.90;60.40;;;;;;3985601;29;20070;-60
2022/03/19 03:56:09;;;;;;;12.30;4.05;;;15.90;61.10;;;;;;3985728;29;20050;-61
2022/03/19 03:58:32;;;;;;;8.00;3.88;;;15.90;60.10;;;;;;3986012;29;20569;-60
2022/03/19 04:00:54;;;;;;;10.68;3.92;;;16.00;59.90;;;;;;3995581;29;20064;-61
2022/03/19 04:03:18;;;;;;;9.57;4.00;;;16.00;59.80;;;;;;3989937;29;20111;-61
2022/03/19 04:05:40;;;;;;;13.57;4.45;;;16.10;58.90;;;;;;4003522;29;20164;-61
2022/03/19 04:08:02;;;;;;;13.15;4.68;;;16.10;59.00;;;;;;4003327;29;20073;-61
2022/03/19 04:10:24;;;;;;;10.50;3.63;;;16.10;59.30;;;;;;3964436;29;20114;-61
2022/03/19 04:12:46;;;;;;;17.70;4.20;;;16.10;59.70;;;;;;4003542;29;20081;-61
2022/03/19 04:15:09;;;;;;;15.30;4.22;;;16.10;60.10;;;;;;3993748;29;20138;-61
2022/03/19 04:17:31;;;;;;;13.77;4.55;;;16.20;60.60;;;;;;3988076;29;20150;-61
2022/03/19 04:19:54;;;;;;;15.70;6.05;;;16.20;60.00;;;;;;3988389;29;20082;-61
2022/03/19 04:22:16;;;;;;;12.43;5.15;;;16.20;58.90;;;;;;3974731;29;20042;-60
2022/03/19 04:24:38;;;;;;;8.95;4.65;;;16.20;59.10;;;;;;3959599;29;20141;-61
2022/03/19 04:27:00;;;;;;;13.27;5.47;;;16.20;59.10;;;;;;3978293;29;20509;-61
2022/03/19 04:29:23;;;;;;;16.23;5.53;;;16.10;57.60;;;;;;3987949;29;20057;-61
2022/03/19 04:31:45;;;;;;;16.17;5.80;;;16.10;59.00;;;;;;3987967;29;20046;-61
2022/03/19 04:34:07;;;;;;;15.00;5.40;;;16.10;58.40;;;;;;3972905;29;20101;-61
2022/03/19 04:36:30;;;;;;;15.32;4.75;;;16.00;58.90;;;;;;3966677;29;20085;-61
2022/03/19 04:38:52;;;;;;;13.10;4.57;;;16.00;59.20;;;;;;3987930;29;20054;-62
2022/03/19 04:41:14;;;;;;;17.98;5.20;;;16.00;59.30;;;;;;3987782;29;20061;-61
2022/03/19 04:43:36;;;;;;;11.75;5.30;;;16.00;59.00;;;;;;3987683;29;20063;-62
2022/03/19 04:45:58;;;;;;;15.60;4.93;;;16.00;58.20;;;;;;3987274;29;20054;-62
2022/03/19 04:48:20;;;;;;;11.80;5.03;;;16.00;58.20;;;;;;3987729;29;20056;-62
2022/03/19 04:50:46;;;;;;;15.43;5.55;;;15.90;58.40;;;;;;3987808;29;20055;-62
2022/03/19 04:53:09;;;;;;;13.52;5.60;;;15.90;57.40;;;;;;3987883;29;20089;-61
2022/03/19 04:55:31;;;;;;;11.73;5.75;;;15.90;58.10;;;;;;3987485;29;20054;-62
2022/03/19 04:57:54;;;;;;;17.10;6.30;;;15.80;58.80;;;;;;3987768;29;20062;-61
2022/03/19 05:00:17;;;;;;;13.88;6.07;;;15.80;58.80;;;;;;3987697;29;20054;-61
2022/03/19 05:02:40;;;;;;;17.58;6.28;;;15.80;60.40;;;;;;3987738;29;20133;-61
2022/03/19 05:05:02;;;;;;;9.80;5.53;;;15.90;62.20;;;;;;3987450;29;20058;-62
2022/03/19 05:07:26;;;;;;;10.98;5.88;;;16.00;60.70;;;;;;3987921;29;20099;-62
2022/03/19 05:12:30;;;;;;;15.20;6.57;;;16.20;59.20;;;;;;3974002;29;20061;-61
2022/03/19 05:14:52;;;;;;;13.23;5.90;;;16.30;59.20;;;;;;3971054;29;20057;-61
2022/03/19 05:17:14;;;;;;;12.43;5.97;;;16.40;59.40;;;;;;3972232;29;20055;-62
2022/03/19 05:19:36;;;;;;;17.08;6.88;;;16.40;58.70;;;;;;3970950;29;20081;-62
2022/03/19 05:21:58;;;;;;;13.13;6.40;;;16.30;57.50;;;;;;3972200;29;20623;-62
2022/03/19 05:24:20;;;;;;;18.77;6.55;;;16.30;57.90;;;;;;3972592;29;20493;-61
2022/03/19 05:26:44;;;;;;;15.63;6.40;;;16.30;57.80;;;;;;3982225;29;20130;-61
2022/03/19 05:29:06;;;;;;;18.95;6.72;;;16.20;57.10;;;;;;3985368;29;20142;-62
2022/03/19 05:31:31;;;;;;;15.75;7.20;;;16.10;56.60;;;;;;3972732;29;20138;-61
2022/03/19 05:36:34;;;;;;;14.48;7.43;;;16.10;56.80;;;;;;3972837;29;20410;-61
2022/03/19 05:38:55;;;;;;;13.98;6.50;;;16.10;56.80;;;;;;3957842;29;20426;-61
2022/03/19 05:41:18;;;;;;;15.07;6.93;;;16.10;57.60;;;;;;3958006;29;20518;-60
2022/03/19 05:43:43;;;;;;;16.80;7.43;;;16.10;57.50;;;;;;3985547;29;20046;-61
2022/03/19 05:46:05;;;;;;;13.68;8.43;;;16.00;56.50;;;;;;3972611;29;20086;-61
2022/03/19 05:48:28;;;;;;;17.02;7.03;;;16.00;56.40;;;;;;3972351;29;20066;-61
2022/03/19 05:50:50;;;;;;;20.60;7.90;;;16.00;56.80;;;;;;3972657;29;20054;-61
2022/03/19 05:53:12;;;;;;;14.68;7.82;;;16.10;58.30;;;;;;3982772;29;20471;-61
2022/03/19 05:55:34;;;;;;;14.40;8.02;;;16.10;56.80;;;;;;3986360;29;20056;-61
2022/03/19 05:57:57;;;;;;;13.57;8.32;;;16.10;55.90;;;;;;3986949;29;20638;-61
2022/03/19 06:00:20;;;;;;;14.00;7.35;;;16.20;55.10;;;;;;3986714;29;20070;-61
2022/03/19 06:02:43;;;;;;;14.20;7.65;;;16.30;55.50;;;;;;4002428;29;20062;-61
2022/03/19 06:05:09;;;;;;;10.77;6.70;;;16.20;56.00;;;;;;3999097;29;20056;-61
2022/03/19 06:07:31;;;;;;;13.68;7.88;;;16.20;56.00;;;;;;3987101;29;20496;-61
2022/03/19 06:09:54;;;;;;;14.35;6.75;;;16.20;56.90;;;;;;3987379;29;20141;-61
2022/03/19 06:12:17;;;;;;;14.73;8.00;;;16.10;55.50;;;;;;3987426;29;20046;-60
2022/03/19 06:14:39;;;;;;;18.30;7.20;;;16.10;55.70;;;;;;3992004;29;20081;-60
2022/03/19 06:17:03;;;;;;;14.52;7.35;;;16.10;56.60;;;;;;3989642;29;20089;-61
2022/03/19 06:19:25;;;;;;;15.57;6.85;;;16.10;56.20;;;;;;3986238;29;20080;-61
2022/03/19 06:21:47;;;;;;;14.85;7.45;;;16.10;56.00;;;;;;3986280;29;20103;-61
2022/03/19 06:24:11;;;;;;;15.30;6.95;;;16.00;55.40;;;;;;3986671;29;20114;-62
2022/03/19 06:26:33;;;;;;;17.25;6.72;;;16.00;55.40;;;;;;3986585;29;20080;-61
2022/03/19 06:28:55;;;;;;;16.75;7.45;;;16.00;56.20;;;;;;3986545;29;20050;-61
2022/03/19 06:31:17;;;;;;;20.13;7.65;;;16.10;56.60;;;;;;3998241;29;20136;-61
2022/03/19 06:33:42;;;;;;;13.65;6.78;;;16.10;55.90;;;;;;4017040;29;20393;-61
2022/03/19 06:38:45;;;;;;;11.75;6.45;;;16.10;54.70;;;;;;3987665;29;20167;-64
2022/03/19 06:41:07;;;;;;;17.60;7.30;;;16.00;55.10;;;;;;3987820;29;20050;-64
2022/03/19 06:43:29;;;;;;;12.57;6.15;;;16.00;54.20;;;;;;4001699;29;20062;-64
2022/03/19 06:45:51;;;;;;;13.18;7.07;;;16.10;55.00;;;;;;4001183;29;20106;-64
2022/03/19 06:48:15;;;;;;;12.93;6.85;;;16.00;55.30;;;;;;4012320;29;20057;-64
2022/03/19 06:50:38;;;;;;;14.02;6.03;;;16.00;55.40;;;;;;4002195;29;20049;-64
2022/03/19 06:53:00;;;;;;;15.00;6.85;;;16.00;54.60;;;;;;4003035;29;20060;-64
2022/03/19 06:55:22;;;;;;;12.98;6.15;;;16.00;54.30;;;;;;4007004;29;20564;-64
2022/03/19 06:57:45;;;;;;;13.70;6.68;;;15.90;55.00;;;;;;3999776;29;20098;-64
2022/03/19 07:00:08;;;;;;;18.15;6.57;;;15.90;56.40;;;;;;4000858;29;20513;-64
2022/03/19 07:02:31;;;;;;;17.15;6.85;;;15.80;55.20;;;;;;4001027;29;20423;-64
2022/03/19 07:04:53;;;;;;;10.68;6.72;;;15.80;56.20;;;;;;4002013;29;20129;-64
2022/03/19 07:07:17;;;;;;;20.85;7.10;;;15.70;56.40;;;;;;4001349;29;20503;-65
2022/03/19 07:09:39;;;;;;;15.35;6.93;;;15.70;55.60;;;;;;4002072;29;20053;-64
2022/03/19 07:12:01;;;;;;;14.15;6.68;;;15.60;56.10;;;;;;4001563;29;20110;-64
2022/03/19 07:14:23;;;;;;;20.00;6.70;;;15.60;59.00;;;;;;4000625;29;20085;-64
2022/03/19 07:16:46;;;;;;;16.50;6.85;;;15.60;57.70;;;;;;4000989;29;20102;-64
2022/03/19 07:19:08;;;;;;;16.95;7.20;;;15.50;56.80;;;;;;4001453;29;20073;-62
2022/03/19 07:21:30;;;;;;;12.98;5.93;;;15.50;57.70;;;;;;4001251;29;20054;-62
2022/03/19 07:23:53;;;;;;;17.00;7.38;;;15.60;60.20;;;;;;4006787;29;20045;-62
2022/03/19 07:26:16;;;;;;;14.93;6.15;;;15.60;59.30;;;;;;4000961;29;20412;-62
2022/03/19 07:28:38;;;;;;;13.93;7.20;;;15.70;60.10;;;;;;4001162;29;20404;-62
2022/03/19 07:31:00;;;;;;;14.45;6.43;;;15.80;60.70;;;;;;3992239;29;20104;-62
2022/03/19 07:33:22;;;;;;;14.73;6.97;;;15.90;60.20;;;;;;3992638;29;20052;-62
2022/03/19 07:35:44;;;;;;;14.77;6.47;;;16.00;58.80;;;;;;4003317;29;20102;-62
2022/03/19 07:38:08;;;;;;;17.90;6.75;;;16.10;57.70;;;;;;4004222;29;20086;-62
2022/03/19 07:43:12;;;;;;;21.08;7.25;;;16.10;57.10;;;;;;4001092;29;20436;-64
2022/03/19 07:45:35;;;;;;;16.65;6.97;;;16.10;55.60;;;;;;4000301;29;20054;-62
2022/03/19 07:47:58;;;;;;;15.63;6.18;;;16.00;54.70;;;;;;4002869;29;20053;-62
2022/03/19 07:50:40;;;;;;;10.63;5.45;;;16.00;54.70;;;;;;4010536;29;20584;-62
2022/03/19 07:53:04;;;;;;;16.38;6.63;;;15.90;55.60;;;;;;3989736;29;20050;-62
2022/03/19 07:55:26;;;;;;;18.70;6.30;;;15.90;56.20;;;;;;4004328;29;20127;-63
2022/03/19 07:57:49;;;;;;;18.10;6.28;;;15.90;56.40;;;;;;4007145;29;20129;-62
2022/03/19 08:00:13;;;;;;;16.65;6.75;;;15.80;54.50;;;;;;4003957;29;20110;-62
2022/03/19 08:02:37;;;;;;;12.98;5.50;;;15.80;54.40;;;;;;4003907;29;20050;-62
2022/03/19 08:05:03;;;;;;;13.73;6.03;;;15.70;54.70;;;;;;4003819;29;20466;-61
2022/03/19 08:07:25;;;;;;;18.08;5.55;;;15.70;55.10;;;;;;4003835;29;20061;-61
2022/03/19 08:09:47;;;;;;;12.27;6.32;;;15.60;54.60;;;;;;4002170;29;20392;-62
2022/03/19 08:12:10;;;;;;;16.20;5.68;;;15.60;55.40;;;;;;4014751;29;21584;-62
2022/03/19 08:14:33;;;;;;;12.05;5.50;;;15.50;55.00;;;;;;4003063;29;20061;-62
2022/03/19 08:16:56;;;;;;;14.90;5.45;;;15.50;54.70;;;;;;4003676;29;20057;-62
2022/03/19 08:19:19;;;;;;;15.18;5.57;;;15.50;54.90;;;;;;4003684;29;20050;-62
2022/03/19 08:21:44;;;;;;;17.98;5.22;;;15.40;55.80;;;;;;4003667;29;20140;-62
2022/03/19 08:24:07;;;;;;;21.80;5.90;;;15.40;55.00;;;;;;4015012;29;20465;-62
2022/03/19 08:26:30;;;;;;;11.07;5.10;;;15.40;55.50;;;;;;4003333;29;20060;-62
2022/03/19 08:28:52;;;;;;;12.25;5.05;;;15.30;56.00;;;;;;4002974;29;20159;-64
2022/03/19 08:31:15;;;;;;;16.42;5.57;;;15.30;56.20;;;;;;4018345;29;20125;-64
2022/03/19 08:33:37;;;;;;;13.85;5.30;;;15.30;56.20;;;;;;4002516;29;20792;-61
2022/03/19 08:36:00;;;;;;;12.90;5.25;;;15.30;56.10;;;;;;4003176;29;20080;-62
2022/03/19 08:41:02;;;;;;;9.32;5.00;;;15.30;56.40;;;;;;4002871;29;20493;-64
2022/03/19 08:43:29;;;;;;;14.35;5.35;;;15.30;55.80;;;;;;3990223;29;20541;-64
2022/03/19 08:45:51;;;;;;;12.35;5.30;;;15.30;55.70;;;;;;4003066;29;20103;-64
2022/03/19 08:48:14;;;;;;;12.45;4.88;;;15.20;57.10;;;;;;3996943;29;20253;-61
2022/03/19 08:50:37;;;;;;;10.88;5.10;;;15.20;57.20;;;;;;4003620;29;20134;-62
2022/03/19 08:52:59;;;;;;;14.00;5.35;;;15.20;57.40;;;;;;4002981;29;20050;-64
2022/03/19 08:55:21;;;;;;;11.95;4.60;;;15.20;57.00;;;;;;4003823;29;20411;-62
2022/03/19 08:57:43;;;;;;;18.20;5.72;;;15.20;56.70;;;;;;4003206;29;20057;-64
2022/03/19 09:00:06;;;;;;;14.55;5.20;;;15.20;56.40;;;;;;4002786;29;20423;-62
2022/03/19 09:02:36;;;;;;;;;;;15.20;56.90;;;;;;4003385;29;20110;-63
2022/03/19 09:04:59;;;;;;;10.80;4.65;;;15.20;57.50;;;;;;4002508;29;20038;-62
2022/03/19 09:07:21;;;;;;;13.55;4.18;;;15.20;57.30;;;;;;4002654;29;20050;-62
2022/03/19 09:09:44;;;;;;;14.65;5.40;;;15.20;58.30;;;;;;4017243;29;20051;-59
2022/03/19 09:12:27;;;;;;;12.93;5.03;;;15.20;57.70;;;;;;4007376;29;20094;-63
2022/03/19 09:14:49;;;;;;;10.75;4.22;;;15.30;56.60;;;;;;4002485;29;20099;-63
2022/03/19 09:17:11;;;;;;;15.30;4.40;;;15.20;56.90;;;;;;3988726;29;20887;-62
2022/03/19 09:19:35;;;;;;;17.63;4.30;;;15.30;57.70;;;;;;4002585;29;20081;-61
2022/03/19 09:22:00;;;;;;;16.13;4.65;;;15.30;56.70;;;;;;4002250;29;20458;-62
2022/03/19 09:24:23;;;;;;;9.15;4.20;;;15.30;56.00;;;;;;4006446;29;20370;-60
2022/03/19 09:26:48;;;;;;;13.48;3.92;;;15.30;56.10;;;;;;4017565;29;20079;-62
2022/03/19 09:29:14;;;;;;;9.35;3.70;;;15.40;55.70;;;;;;4015764;29;20057;-59
2022/03/19 09:31:36;;;;;;;11.07;3.38;;;15.40;55.90;;;;;;4010510;29;20084;-60
2022/03/19 09:33:58;;;;;;;8.25;3.45;;;15.40;55.80;;;;;;4004366;29;20060;-61
2022/03/19 09:36:20;;;;;;;14.45;3.65;;;15.40;55.10;;;;;;4002361;29;20057;-62
2022/03/19 09:38:44;;;;;;;10.93;3.00;;;15.40;54.20;;;;;;4001079;29;20060;-62
2022/03/19 09:41:07;;;;;;;10.93;4.05;;;15.40;54.70;;;;;;3988383;29;20058;-59
2022/03/19 09:43:29;;;;;;;11.13;3.65;;;15.50;54.80;;;;;;4002173;29;20466;-60
2022/03/19 09:45:51;;;;;;;8.80;3.60;;;15.50;53.80;;;;;;4004379;29;20089;-61
2022/03/19 09:48:13;;;;;;;9.95;3.13;;;15.50;53.60;;;;;;3982580;29;20062;-61
2022/03/19 09:50:36;;;;;;;14.70;3.72;;;15.50;53.10;;;;;;4002802;29;20042;-60
2022/03/19 09:52:58;;;;;;;13.18;3.72;;;15.50;53.70;;;;;;4001335;29;20110;-60
2022/03/19 09:55:26;;;;;;;11.25;3.97;;;15.50;53.50;;;;;;3988107;29;20523;-60
2022/03/19 09:57:48;;;;;;;9.15;3.17;;;15.50;52.40;;;;;;4002210;29;20492;-60
2022/03/19 10:00:12;;;;;;;7.55;3.25;;;15.40;51.60;;;;;;4002319;29;20385;-60
2022/03/19 10:02:34;;;;;;;11.63;3.45;;;15.40;52.30;;;;;;4001518;29;20157;-60
2022/03/19 10:08:35;;;;;;;8.88;3.72;;;15.40;52.60;;;;;;3997519;29;20132;-60
2022/03/19 10:10:32;;;;;;;7.85;3.55;;;15.40;52.80;;;;;;3976295;29;20627;-60
2022/03/19 10:12:56;;;;;;;10.48;3.35;;;15.40;52.90;;;;;;3987417;29;20057;-61
2022/03/19 10:15:18;;;;;;;14.88;3.55;;;15.40;52.40;;;;;;3972810;29;20497;-60
2022/03/19 10:17:41;;;;;;;11.52;3.60;;;15.40;52.10;;;;;;3973357;29;20050;-60
2022/03/19 10:20:07;;;;;;;10.10;3.45;;;15.40;52.60;;;;;;3985951;29;20509;-60
2022/03/19 10:22:30;;;;;;;8.85;2.95;;;15.40;52.10;;;;;;4001748;29;20054;-60
2022/03/19 10:24:57;;;;;;;12.23;3.20;;;15.40;51.50;;;;;;3987784;29;20066;-60
2022/03/19 10:27:21;;;;;;;8.68;2.45;;;15.40;51.20;;;;;;4001654;29;20057;-60
2022/03/19 10:29:43;;;;;;;10.82;3.13;;;15.40;50.80;;;;;;3986481;29;20050;-60
2022/03/19 10:32:07;;;;;;;6.18;2.40;;;15.40;51.00;;;;;;3985687;29;20069;-60
2022/03/19 10:34:31;;;;;;;6.72;2.67;;;15.40;50.90;;;;;;3998974;29;20056;-60
2022/03/19 10:36:53;;;;;;;7.13;2.60;;;15.40;50.80;;;;;;4001475;29;20710;-60
2022/03/19 10:39:20;;;;;;;25.48;2.97;;;15.40;50.10;;;;;;4000025;29;20061;-60
2022/03/19 10:41:43;;;;;;;7.85;2.42;;;15.40;50.80;;;;;;4001251;29;20065;-61
2022/03/19 10:44:15;;;;;;;9.43;2.80;;;15.40;50.90;;;;;;3974951;29;20153;-60
2022/03/19 10:46:37;;;;;;;5.70;1.88;;;15.40;50.10;;;;;;3986083;29;20057;-59
2022/03/19 10:49:00;;;;;;;8.80;2.40;;;15.40;50.10;;;;;;3986043;29;20054;-59
2022/03/19 10:51:22;;;;;;;10.50;2.80;;;15.50;50.00;;;;;;3998619;29;20545;-60
2022/03/19 10:53:45;;;;;;;9.30;2.72;;;15.50;50.60;;;;;;3997682;29;20057;-60
2022/03/19 10:56:09;;;;;;;6.15;3.05;;;15.50;50.60;;;;;;4007534;29;20053;-60
2022/03/19 10:58:40;;;;;;;8.70;3.03;;;15.50;50.20;;;;;;4008563;29;20061;-60
2022/03/19 11:01:04;;;;;;;6.97;2.25;;;15.50;49.80;;;;;;4008175;29;20053;-60
2022/03/19 11:03:28;;;;;;;4.93;2.47;;;15.50;49.30;;;;;;4008590;29;20153;-60
2022/03/19 11:05:56;;;;;;;6.53;2.17;;;15.50;49.40;;;;;;4004255;29;20061;-60
2022/03/19 11:08:20;;;;;;;7.20;2.42;;;15.50;49.90;;;;;;4000529;29;20103;-60
2022/03/19 11:10:42;;;;;;;4.97;1.85;;;15.50;49.20;;;;;;4001247;29;20133;-60
2022/03/19 11:13:06;;;;;;;5.90;2.03;;;15.50;48.60;;;;;;4001210;29;20412;-60
2022/03/19 11:15:33;;;;;;;6.72;1.90;;;15.50;48.50;;;;;;4013541;29;20065;-60
2022/03/19 11:17:59;;;;;;;4.50;2.00;;;15.50;48.50;;;;;;4008435;29;20076;-60
2022/03/19 11:20:21;;;;;;;5.65;2.13;;;15.50;48.60;;;;;;4016716;29;20060;-60
2022/03/19 11:22:46;;;;;;;3.10;1.77;;;15.50;48.60;;;;;;4014448;29;20053;-61
2022/03/19 11:25:23;;;;;;;3.63;1.88;;;15.50;49.00;;;;;;4014296;29;20067;-61
2022/03/19 11:27:49;;;;;;;3.33;1.77;;;15.50;48.70;;;;;;4016184;29;20060;-60
2022/03/19 11:30:21;;;;;;;4.10;1.70;;;15.50;48.50;;;;;;4012884;29;20057;-61
2022/03/19 11:33:03;;;;;;;3.95;1.70;;;15.50;48.60;;;;;;4007602;29;20137;-61
2022/03/19 11:35:26;;;;;;;3.70;1.92;;;15.50;48.40;;;;;;4009412;29;20515;-62
2022/03/19 11:38:11;;;;;;;3.53;1.35;;;15.50;48.60;;;;;;3985544;29;20050;-61
2022/03/19 11:40:35;;;;;;;6.68;1.90;;;15.50;48.40;;;;;;4000759;29;20065;-61
2022/03/19 11:43:16;;;;;;;3.15;1.52;;;15.50;48.50;;;;;;4000971;29;20530;-61
2022/03/19 11:45:40;;;;;;;3.58;1.42;;;15.50;48.30;;;;;;4001091;29;20531;-60
2022/03/19 11:48:04;;;;;;;3.65;1.70;;;15.50;48.10;;;;;;4000201;29;20092;-61
2022/03/19 11:50:27;;;;;;;3.28;1.65;;;15.50;48.30;;;;;;4006032;29;20056;-61
2022/03/19 11:53:07;;;;;;;4.15;1.80;;;15.50;48.40;;;;;;4006115;29;20145;-61
2022/03/19 11:55:38;;;;;;;3.55;1.55;;;15.50;48.10;;;;;;4003238;29;20421;-61
2022/03/19 11:58:00;;;;;;;6.75;2.25;;;15.50;48.40;;;;;;4004474;29;20145;-61
2022/03/19 12:00:27;;;;;;;3.45;1.45;;;15.50;48.20;;;;;;4000942;29;20069;-61
2022/03/19 12:03:12;;;;;;;5.55;2.15;;;15.50;48.10;;;;;;4000659;29;20087;-63
2022/03/19 12:05:36;;;;;;;5.25;1.88;;;15.50;47.90;;;;;;4001876;29;20132;-61
2022/03/19 12:08:06;;;;;;;5.30;2.00;;;15.50;48.40;;;;;;4001093;29;20065;-60
2022/03/19 12:10:35;;;;;;;3.47;1.60;;;15.50;47.90;;;;;;3995678;29;20548;-60
2022/03/19 12:13:00;;;;;;;5.00;2.10;;;15.50;48.20;;;;;;4000376;29;20057;-61
2022/03/19 12:15:46;;;;;;;2.15;1.52;;;15.60;48.10;;;;;;4000088;29;20508;-59
2022/03/19 12:18:28;;;;;;;6.03;2.08;;;15.60;48.10;;;;;;3985757;29;20061;-60
2022/03/19 12:20:50;;;;;;;;;;;15.60;48.10;;;;;;3988869;29;20126;-60
2022/03/19 12:23:13;;;;;;;5.70;2.55;;;15.60;48.30;;;;;;3973409;29;19935;-61
2022/03/19 12:25:40;;;;;;;2.20;1.67;;;15.60;48.40;;;;;;3987369;29;20062;-61
2022/03/19 12:28:02;;;;;;;3.53;1.73;;;15.60;48.40;;;;;;3987509;29;20073;-61
2022/03/19 12:30:25;;;;;;;2.13;1.75;;;15.60;48.50;;;;;;4003427;29;20521;-61
2022/03/19 12:32:54;;;;;;;6.40;1.83;;;15.60;48.10;;;;;;4003512;29;20092;-61
2022/03/19 12:35:18;;;;;;;4.50;1.95;;;15.60;48.00;;;;;;3987439;29;20078;-60
2022/03/19 12:37:48;;;;;;;4.78;2.35;;;15.60;47.90;;;;;;3988353;29;20066;-61
2022/03/19 12:40:10;;;;;;;4.50;1.95;;;15.60;47.90;;;;;;4002203;29;20049;-61
2022/03/19 12:42:33;;;;;;;4.63;2.45;;;15.60;47.90;;;;;;4003297;29;20085;-61